Información del aeropuerto LEZG

Información de pista
Pista 12L Longitud 9843 ft Anchura 148 ft
Elevación 823 ft Umbral 0 ft Rumbo 120
Pista 30R Longitud 9843 ft Anchura 148 ft
Elevación 834 ft Umbral 0 ft Rumbo 300
Pista 12R Longitud 12198 ft Anchura 148 ft
Elevación 834 ft Umbral 0 ft Rumbo 120
Pista 30L Longitud 12198 ft Anchura 148 ft
Elevación 863 ft Umbral 0 ft Rumbo 300
Frecuencias del aeropuerto
Tipo APP Nombre APP Frecuencia 119.3 MHZ
Tipo GND Nombre GND Frecuencia 118.1 MHZ
Tipo TWR Nombre TWR Frecuencia 118.1 MHZ
Radioayudas del aeropuerto
Tipo VOR-DME Nombre Zaragoza Frecuencia 113000 KHZ
Tipo NDB Nombre Zaragoza Frecuencia 389 KHZ
Tipo TACAN Nombre Zaragoza Frecuencia 133700 KHZ
Tipo NDB Nombre Zaragoza Frecuencia 348 KHZ
Información meteorológica del aeropuerto y NOTAM
ADDS - METARS form results

(0328 UTC 05 March 2021)
Data provider http://aviationweather.gov/metar/data/
 
METAR text: LEZG 050300Z 00000KT 3000 BR OVC034 07/06 Q1018
Conditions at: LEZG (ZARAGOZA (MIL/CI, ES) observed 0300 UTC 05 March 2021
Temperature: 7.0°C (45°F)
Dewpoint: 6.0°C (43°F) [RH = 93%]
Pressure (altimeter): 30.06 inches Hg (1018.0 mb)
Winds: calm
Visibility: 1.86 miles (2.99 km)
Ceiling: 3400 feet AGL
Clouds: overcast cloud deck at 3400 feet AGL
Weather: BR  (mist)

METAR text: LEZG 050230Z 18002KT 5000 BR BKN032 07/06 Q1018
Conditions at: LEZG (ZARAGOZA (MIL/CI, ES) observed 0230 UTC 05 March 2021
Temperature: 7.0°C (45°F)
Dewpoint: 6.0°C (43°F) [RH = 93%]
Pressure (altimeter): 30.06 inches Hg (1018.0 mb)
Winds: from the S (180 degrees) at 2 MPH (2 knots; 1.0 m/s)
Visibility: 3 miles ( 5 km)
Ceiling: 3200 feet AGL
Clouds: broken clouds at 3200 feet AGL
Weather: BR  (mist)

Forecast for: LEZG (ZARAGOZA (MIL/CI, ES)
Text: TAF LEZG 042300Z 0500/0524 VRB04KT 9999 FEW040 TX17/0514Z TN06/0506Z
Forecast period: 0000 to 1600 UTC 05 March 2021
Forecast type: FROM: standard forecast or significant change
Winds: variable direction winds at 5 MPH (4 knots; 2.1 m/s)
Visibility: 6 or more miles (10+ km)
Ceiling: at least 12,000 feet AGL
Clouds: few clouds at 4000 feet AGL
Weather: no significant weather forecast for this period
Text: PROB40
Forecast period: 0300 to 0900 UTC 05 March 2021
Forecast type: TEMPORARY: The following changes expected for less than half the time period
Visibility: 1.86 miles (2.99 km)
Ceiling: 1400 feet AGL
Clouds: broken clouds at 1400 feet AGL
Weather: BR  (mist)
Text: TEMPO 0503/0509 3000 BR BKN014
Forecast period: 1600 UTC 05 March 2021 to 0000 UTC 06 March 2021
Forecast type: BECOMING: Conditions expected to become as follows by 1800 UTC 05 March 2021
Winds: from the NW (310 degrees) at 12 MPH (10 knots; 5.1 m/s)
Visibility: 6 or more miles (10+ km)
Ceiling: at least 12,000 feet AGL
Clouds: few clouds at 4000 feet AGL
Weather: no significant weather forecast for this period